KDTN/DTN METAR and TAF weather

Enter ICAO airport designator
Station Type Date Time Source
KDTN METAR 2019/10/18 05:53 UTC NOAA

KDTN 180553Z AUTO 00000KT 10SM CLR 11/09 A2996 RMK AO2 SLP145 T01110089 10161 20100 401940089 58008


Station Type Date Time Source
KDTN Decoded METAR 2019/10/18 05:53 UTC NOAA

SHREVEPORT DOWNTOWN AIRPORT, LA, United States (KDTN) 32-32N 093-45W 53M
Oct 18, 2019 - 01:53 AM EDT / 2019.10.18 0553 UTC
Wind: Calm:0
Visibility: 10 mile(s):0
Sky conditions: clear
Temperature: 52.0 F (11.1 C)
Dew Point: 48.0 F (8.9 C)
Relative Humidity: 86%
Pressure (altimeter): 29.96 in. Hg (1014 hPa)
Pressure tendency: 0.02 inches (0.8 hPa) lower than three hours ago
ob: KDTN 180553Z AUTO 00000KT 10SM CLR 11/09 A2996 RMK AO2 SLP145 T01110089 10161 20100 401940089 58008
cycle: 6

Station Type Date Time Source
KDTN TAF UTC NOAA

Error!

Example: see airport list